LFRO/LAI METAR and TAF weather

Enter ICAO airport designator
Station Type Date Time Source
LFRO METAR 2019/04/25 18:00 UTC NOAA

LFRO 251800Z AUTO 19006KT 170V230 9999 BKN038/// BKN058/// BKN074/// ///CB 12/06 Q1002


Station Type Date Time Source
LFRO Decoded METAR 2019/04/25 18:00 UTC NOAA

Lannion / Servel, France (LFRO) 48-45N 003-28W
Apr 25, 2019 - 02:00 PM EDT / 2019.04.25 1800 UTC
Wind: from the S (190 degrees) at 7 MPH (6 KT) (direction variable):0
Visibility: greater than 7 mile(s):0
Sky conditions: mostly cloudy
Weather: Cumulonimbus clouds observed
Temperature: 53 F (12 C)
Dew Point: 42 F (6 C)
Relative Humidity: 66%
Pressure (altimeter): 29.59 in. Hg (1002 hPa)
ob: LFRO 251800Z AUTO 19006KT 170V230 9999 BKN038/// BKN058/// BKN074/// ///CB 12/06 Q1002
cycle: 18

Station Type Date Time Source
LFRO TAF 2019/04/18 06:21 UTC NOAA

TAF LFRO 180500Z 1806/1906 10007KT CAVOK

Example: see airport list